Overview Statistics Trail Chart Weather Telemetry Raw packets
 

This is the latest recevied packets stored in our database for station/object DG4LD-12. If no packets are shown the sender has not sent any packets the latest 24 hours.

If you compare the raw packets with similar data from other websites it may differ (especially the path), the reason is that we are not collecting packets from the same APRS-IS servers. Each APRS-IS server performes duplicate filtering, and which packet that is considered to be a duplicate may differ depending on which APRS-IS server you receive your data from.

<< 1 2 3 4 >>

1777727772: DG4LD-12>APRSMC,TCPIP*,qAR,DB0XN-12:T#369,0.0,0.0,24.2,0.0,35.7,00000000

1777727772: DG4LD-12>APRSMC,TCPIP*,qAR,DB0XN-12:!5448.65N/00923.90E#MeshCom 4.0#DG4LD-12/B=100/A=000299

1777724131: DG4LD-12>APRSMC,TCPIP*,qAR,DB0XN-12:!5448.65N/00923.90E#MeshCom 4.0#DG4LD-12/B=100/A=000299

1777724131: DG4LD-12>APRSMC,TCPIP*,qAR,DB0XN-12:T#368,0.0,0.0,24.2,0.0,35.6,00000000

1777722317: DG4LD-12>APRSMC,TCPIP*,qAR,DB0XN-12:T#367,0.0,0.0,24.2,0.0,35.6,00000000

1777722317: DG4LD-12>APRSMC,TCPIP*,qAR,DB0XN-12:!5448.65N/00923.90E#MeshCom 4.0#DG4LD-12/B=100/A=000299

1777720507: DG4LD-12>APRSMC,TCPIP*,qAR,DB0XN-12:T#366,0.0,0.0,24.2,0.0,35.6,00000000

1777720507: DG4LD-12>APRSMC,TCPIP*,qAR,DB0XN-12:!5448.65N/00923.90E#MeshCom 4.0#DG4LD-12/B=100/A=000299

1777718685: DG4LD-12>APRSMC,TCPIP*,qAR,DB0XN-12:T#365,0.0,0.0,24.3,0.0,35.4,00000000

1777718685: DG4LD-12>APRSMC,TCPIP*,qAR,DB0XN-12:!5448.65N/00923.90E#MeshCom 4.0#DG4LD-12/B=100/A=000299

1777716868: DG4LD-12>APRSMC,TCPIP*,qAR,DB0XN-12:T#364,0.0,0.0,24.2,0.0,35.6,00000000

1777716868: DG4LD-12>APRSMC,TCPIP*,qAR,DB0XN-12:!5448.65N/00923.90E#MeshCom 4.0#DG4LD-12/B=100/A=000299

1777715067: DG4LD-12>APRSMC,TCPIP*,qAR,DB0XN-12:!5448.65N/00923.90E#MeshCom 4.0#DG4LD-12/B=100/A=000299

1777715067: DG4LD-12>APRSMC,TCPIP*,qAR,DB0XN-12:T#363,0.0,0.0,24.2,0.0,35.5,00000000

1777713236: DG4LD-12>APRSMC,TCPIP*,qAR,DB0XN-12:T#362,0.0,0.0,24.2,0.0,35.6,00000000

1777713236: DG4LD-12>APRSMC,TCPIP*,qAR,DB0XN-12:!5448.65N/00923.90E#MeshCom 4.0#DG4LD-12/B=100/A=000299

1777711423: DG4LD-12>APRSMC,TCPIP*,qAR,DB0XN-12::DG4LD-12 :UNIT.hPa,C deg,%,hPa,C deg,Y/N,O/N,O/N,O/N,O/N,O/N,O/N,O/N

1777711423: DG4LD-12>APRSMC,TCPIP*,qAR,DB0XN-12::DG4LD-12 :PARM.Press,Temp.in,Hum,QNH,Temp.out,track,-,-,-,-,-,-,-

1777711423: DG4LD-12>APRSMC,TCPIP*,qAR,DB0XN-12:T#361,0.0,0.0,24.2,0.0,35.5,00000000

1777711423: DG4LD-12>APRSMC,TCPIP*,qAR,DB0XN-12::DG4LD-12 :EQNS.0,1,0,0,1,0,0,1,0,0,1,0,0,1,0

1777711423: DG4LD-12>APRSMC,TCPIP*,qAR,DB0XN-12:!5448.65N/00923.90E#MeshCom 4.0#DG4LD-12/B=100/A=000299

1777709607: DG4LD-12>APRSMC,TCPIP*,qAR,DB0XN-12:T#360,0.0,0.0,24.2,0.0,35.5,00000000

1777709607: DG4LD-12>APRSMC,TCPIP*,qAR,DB0XN-12:!5448.65N/00923.90E#MeshCom 4.0#DG4LD-12/B=100/A=000299

1777707791: DG4LD-12>APRSMC,TCPIP*,qAR,DB0XN-12:T#359,0.0,0.0,24.2,0.0,35.5,00000000

1777707791: DG4LD-12>APRSMC,TCPIP*,qAR,DB0XN-12:!5448.65N/00923.90E#MeshCom 4.0#DG4LD-12/B=100/A=000299